Time;durP1;ratioP1;P1;durP2;ratioP2;P2;SDS_P1;SDS_P2;PMS_P1;PMS_P2;Temp;Humidity;BMP_temperature;BMP_pressure;BME280_temperature;BME280_humidity;BME280_pressure;Samples;Min_cycle;Max_cycle;Signal;HPM_P1;HPM_P2
2024/01/21 00:00:50;;;;;;;32.22;18.75;;;-3.30;99.90;;;;;;2103459;28;20797;-75
2024/01/21 00:01:51;;;;;;;30.95;18.50;;;-3.30;99.90;;;;;;2102760;28;20036;-75
2024/01/21 00:02:52;;;;;;;32.25;17.92;;;-3.30;99.90;;;;;;2096340;28;20089;-74
2024/01/21 00:03:52;;;;;;;33.97;19.20;;;-3.40;99.90;;;;;;2103827;28;20553;-76
2024/01/21 00:04:53;;;;;;;31.25;18.23;;;-3.40;99.90;;;;;;2105252;28;20024;-76
2024/01/21 00:05:53;;;;;;;31.27;18.27;;;-3.40;99.90;;;;;;2105246;28;20024;-77
2024/01/21 00:06:54;;;;;;;34.00;18.88;;;-3.40;99.90;;;;;;2104158;28;20115;-76
2024/01/21 00:07:54;;;;;;;31.70;18.25;;;-3.50;99.90;;;;;;2104454;28;20036;-75
2024/01/21 00:08:55;;;;;;;33.40;18.75;;;-3.50;99.90;;;;;;2104870;28;20561;-74
2024/01/21 00:09:55;;;;;;;35.90;18.90;;;-3.50;99.90;;;;;;2104415;28;20394;-76
2024/01/21 00:10:56;;;;;;;36.58;19.73;;;-3.40;99.90;;;;;;2095768;28;20102;-76
2024/01/21 00:11:57;;;;;;;41.47;21.25;;;-3.50;99.90;;;;;;2104038;28;20533;-76
2024/01/21 00:12:57;;;;;;;40.28;20.15;;;-3.50;99.90;;;;;;2104708;28;20028;-75
2024/01/21 00:13:58;;;;;;;35.85;18.83;;;-3.40;99.90;;;;;;2104040;28;20032;-76
2024/01/21 00:14:58;;;;;;;36.47;20.23;;;-3.40;99.90;;;;;;2104238;28;20031;-76
2024/01/21 00:16:32;;;;;;;39.33;20.35;;;-3.40;99.90;;;;;;2103627;28;20498;-75
2024/01/21 00:17:33;;;;;;;39.63;20.38;;;-3.40;99.90;;;;;;2097263;28;20203;-75
2024/01/21 00:18:34;;;;;;;37.03;19.48;;;-3.40;99.90;;;;;;2095547;28;20028;-74
2024/01/21 00:19:35;;;;;;;34.13;18.10;;;-3.40;99.90;;;;;;2090197;28;20024;-74
2024/01/21 00:20:35;;;;;;;33.60;17.58;;;-3.50;99.90;;;;;;2086028;28;20149;-75
2024/01/21 00:21:36;;;;;;;31.75;17.95;;;-3.50;99.90;;;;;;2085824;28;20033;-74
2024/01/21 00:22:36;;;;;;;33.13;18.33;;;-3.50;99.90;;;;;;2093436;28;20617;-74
2024/01/21 00:23:37;;;;;;;32.85;17.58;;;-3.50;99.90;;;;;;2078255;28;20103;-75
2024/01/21 00:24:37;;;;;;;34.45;18.05;;;-3.50;99.90;;;;;;2080912;28;20037;-74
2024/01/21 00:25:38;;;;;;;34.70;18.40;;;-3.60;99.90;;;;;;2091782;28;20031;-74
2024/01/21 00:26:48;;;;;;;32.85;18.08;;;-3.60;99.90;;;;;;2095971;28;20787;-74
2024/01/21 00:27:49;;;;;;;29.25;17.48;;;-3.60;99.90;;;;;;2096447;28;20082;-74
2024/01/21 00:28:49;;;;;;;32.47;18.63;;;-3.70;99.90;;;;;;2088434;28;20090;-75
2024/01/21 00:29:51;;;;;;;30.23;17.20;;;-3.70;99.90;;;;;;2087892;28;20553;-75
2024/01/21 00:30:53;;;;;;;31.67;17.70;;;-3.70;99.90;;;;;;2081389;28;20031;-75
2024/01/21 00:31:54;;;;;;;32.70;18.10;;;-3.70;99.90;;;;;;2082743;28;20216;-74
2024/01/21 00:32:54;;;;;;;30.83;18.08;;;-3.70;99.90;;;;;;2079327;28;20037;-75
2024/01/21 00:33:55;;;;;;;33.95;18.45;;;-3.70;99.90;;;;;;2078724;28;20044;-75
2024/01/21 00:34:56;;;;;;;37.53;19.08;;;-3.70;99.90;;;;;;2077704;28;20021;-75
2024/01/21 00:36:11;;;;;;;31.23;18.33;;;-3.70;99.90;;;;;;2080454;28;20021;-75
2024/01/21 00:37:20;;;;;;;34.33;18.00;;;-3.70;99.90;;;;;;2090441;28;20017;-75
2024/01/21 00:38:21;;;;;;;32.25;17.45;;;-3.80;99.90;;;;;;2082558;28;20033;-75
2024/01/21 00:39:22;;;;;;;34.67;18.42;;;-3.70;99.90;;;;;;2082817;28;20083;-75
2024/01/21 00:40:22;;;;;;;36.38;18.67;;;-3.70;99.90;;;;;;2082268;28;20548;-75
2024/01/21 00:41:32;;;;;;;35.55;19.15;;;-3.80;99.90;;;;;;2088674;28;20029;-75
2024/01/21 00:42:32;;;;;;;34.58;18.38;;;-3.70;99.90;;;;;;2099504;28;20032;-75
2024/01/21 00:43:33;;;;;;;32.40;17.73;;;-3.80;99.90;;;;;;2086707;28;20154;-75
2024/01/21 00:44:33;;;;;;;33.97;18.65;;;-3.80;99.90;;;;;;2090261;28;20383;-75
2024/01/21 00:45:36;;;;;;;33.22;18.52;;;-3.80;99.90;;;;;;2090412;28;20103;-74
2024/01/21 00:46:38;;;;;;;35.47;18.63;;;-3.80;99.90;;;;;;2098559;28;20023;-75
2024/01/21 00:47:39;;;;;;;35.15;19.70;;;-3.80;99.90;;;;;;2088014;28;20029;-75
2024/01/21 00:48:40;;;;;;;35.25;18.80;;;-3.80;99.90;;;;;;2094945;28;20020;-75
2024/01/21 00:49:41;;;;;;;36.22;19.38;;;-3.80;99.90;;;;;;2085203;28;20024;-75
2024/01/21 00:50:42;;;;;;;33.92;18.40;;;-3.80;99.90;;;;;;2093026;28;20029;-75
2024/01/21 00:51:42;;;;;;;35.10;19.67;;;-3.80;99.90;;;;;;2091263;28;20527;-75
2024/01/21 00:52:43;;;;;;;37.25;19.92;;;-3.80;99.90;;;;;;2095173;28;20797;-75
2024/01/21 00:53:44;;;;;;;35.13;19.80;;;-3.90;99.90;;;;;;2089172;28;20037;-75
2024/01/21 00:54:45;;;;;;;36.13;19.58;;;-3.90;99.90;;;;;;2077361;28;20064;-75
2024/01/21 00:55:46;;;;;;;36.30;19.60;;;-3.90;99.90;;;;;;2084883;28;20044;-75
2024/01/21 00:56:46;;;;;;;37.38;19.92;;;-3.90;99.90;;;;;;2089532;28;20119;-74
2024/01/21 00:57:47;;;;;;;38.30;20.02;;;-3.90;99.90;;;;;;2077390;28;20029;-74
2024/01/21 00:58:47;;;;;;;39.67;20.38;;;-3.90;99.90;;;;;;2089573;28;20560;-75
2024/01/21 00:59:49;;;;;;;35.40;19.15;;;-3.90;99.90;;;;;;2090098;28;20036;-75
2024/01/21 01:00:49;;;;;;;37.10;20.08;;;-3.90;99.90;;;;;;2097365;28;20470;-75
2024/01/21 01:01:50;;;;;;;35.58;20.05;;;-3.90;99.90;;;;;;2103159;28;20052;-74
2024/01/21 01:02:59;;;;;;;36.45;19.80;;;-4.00;99.90;;;;;;2101812;28;20036;-74
2024/01/21 01:04:00;;;;;;;33.28;19.15;;;-3.90;99.90;;;;;;2087493;28;20022;-74
2024/01/21 01:05:00;;;;;;;37.70;19.88;;;-4.00;99.90;;;;;;2082537;28;20025;-75
2024/01/21 01:06:01;;;;;;;34.53;19.60;;;-3.90;99.90;;;;;;2085657;28;20017;-74
2024/01/21 01:07:02;;;;;;;34.45;19.15;;;-4.00;99.90;;;;;;2092752;28;20112;-74
2024/01/21 01:08:03;;;;;;;33.53;18.85;;;-3.90;99.90;;;;;;2088234;28;20656;-75
2024/01/21 01:09:06;;;;;;;36.03;19.70;;;-4.00;99.90;;;;;;2073014;28;20099;-74
2024/01/21 01:10:07;;;;;;;33.20;18.55;;;-4.00;99.90;;;;;;2084914;28;20020;-74
2024/01/21 01:11:08;;;;;;;32.50;18.40;;;-4.00;99.90;;;;;;2085401;28;20525;-74
2024/01/21 01:12:08;;;;;;;35.08;18.92;;;-4.00;99.90;;;;;;2084780;28;20032;-75
2024/01/21 01:13:09;;;;;;;35.15;19.98;;;-4.00;99.90;;;;;;2087761;28;20060;-74
2024/01/21 01:14:10;;;;;;;36.17;19.73;;;-4.00;99.90;;;;;;2084710;28;20170;-75
2024/01/21 01:15:11;;;;;;;37.03;20.08;;;-4.00;99.90;;;;;;2076984;28;20550;-74
2024/01/21 01:16:11;;;;;;;37.03;19.65;;;-4.00;99.90;;;;;;2087053;28;20029;-74
2024/01/21 01:17:12;;;;;;;34.47;18.77;;;-4.10;99.90;;;;;;2097365;28;20063;-75
2024/01/21 01:18:14;;;;;;;34.60;19.52;;;-4.00;99.90;;;;;;2092867;28;20024;-74
2024/01/21 01:19:14;;;;;;;34.78;20.30;;;-4.10;99.90;;;;;;2097609;28;20024;-76
2024/01/21 01:20:15;;;;;;;40.53;21.33;;;-4.10;99.90;;;;;;2088505;28;20502;-75
2024/01/21 01:21:15;;;;;;;36.53;19.75;;;-4.10;99.90;;;;;;2076754;28;20594;-76
2024/01/21 01:22:16;;;;;;;38.95;20.88;;;-4.10;99.90;;;;;;2092952;28;20622;-76
2024/01/21 01:23:17;;;;;;;36.22;19.85;;;-4.10;99.90;;;;;;2087031;28;20025;-76
2024/01/21 01:24:19;;;;;;;39.67;20.73;;;-4.10;99.90;;;;;;2093436;28;20048;-75
2024/01/21 01:25:20;;;;;;;39.13;20.73;;;-4.10;99.90;;;;;;2081036;28;20057;-76
2024/01/21 01:26:21;;;;;;;36.75;19.98;;;-4.10;99.90;;;;;;2090299;28;20029;-75
2024/01/21 01:27:23;;;;;;;37.00;20.38;;;-4.10;99.90;;;;;;2100051;28;20586;-74
2024/01/21 01:28:23;;;;;;;36.72;19.65;;;-4.10;99.90;;;;;;2102481;28;20019;-75
2024/01/21 01:29:24;;;;;;;38.10;19.70;;;-4.10;99.90;;;;;;2084398;28;20091;-74
2024/01/21 01:30:27;;;;;;;36.05;19.58;;;-4.10;99.90;;;;;;2076272;28;20480;-74
2024/01/21 01:31:28;;;;;;;36.35;19.75;;;-4.20;99.90;;;;;;2082797;28;20499;-74
2024/01/21 01:32:28;;;;;;;34.58;18.75;;;-4.20;99.90;;;;;;2100176;28;20047;-74
2024/01/21 01:33:29;;;;;;;35.90;19.52;;;-4.20;99.90;;;;;;2094368;28;20131;-74
2024/01/21 01:34:30;;;;;;;34.88;18.83;;;-4.20;99.90;;;;;;2074900;28;20022;-74
2024/01/21 01:35:30;;;;;;;36.65;19.70;;;-4.20;99.90;;;;;;2079944;28;20118;-74
2024/01/21 01:36:31;;;;;;;37.00;19.88;;;-4.20;99.90;;;;;;2086727;28;20032;-74
2024/01/21 01:37:32;;;;;;;35.45;19.13;;;-4.20;99.90;;;;;;2077539;28;20115;-74
2024/01/21 01:38:32;;;;;;;34.58;18.88;;;-4.20;99.90;;;;;;2087219;28;20033;-74
2024/01/21 01:39:33;;;;;;;37.05;19.52;;;-4.20;99.90;;;;;;2094709;28;20543;-76
2024/01/21 01:40:33;;;;;;;38.72;19.92;;;-4.20;99.90;;;;;;2089534;28;20086;-76
2024/01/21 01:41:34;;;;;;;34.75;19.30;;;-4.20;99.90;;;;;;2100789;28;20482;-76
2024/01/21 01:42:34;;;;;;;36.97;20.13;;;-4.20;99.90;;;;;;2086192;28;20585;-75
2024/01/21 01:43:35;;;;;;;35.88;20.33;;;-4.20;99.90;;;;;;2080661;28;20072;-74
2024/01/21 01:44:40;;;;;;;37.83;19.52;;;-4.20;99.90;;;;;;2095735;28;20139;-74
2024/01/21 01:45:41;;;;;;;36.78;19.88;;;-4.20;99.90;;;;;;2093427;28;20558;-74
2024/01/21 01:46:42;;;;;;;36.53;19.70;;;-4.20;99.90;;;;;;2080508;28;20044;-73
2024/01/21 01:47:43;;;;;;;35.67;20.27;;;-4.30;99.90;;;;;;2080370;28;20029;-74
2024/01/21 01:48:44;;;;;;;37.78;20.25;;;-4.20;99.90;;;;;;2080658;28;20068;-75
2024/01/21 01:49:45;;;;;;;34.35;19.23;;;-4.20;99.90;;;;;;2093049;28;20040;-74
2024/01/21 01:50:46;;;;;;;36.70;19.85;;;-4.20;99.90;;;;;;2092971;28;20429;-74
2024/01/21 01:51:46;;;;;;;48.40;25.83;;;-4.20;99.90;;;;;;2089727;28;20029;-74
2024/01/21 01:52:47;;;;;;;60.97;31.10;;;-4.20;99.90;;;;;;2077363;28;20418;-73
2024/01/21 01:53:49;;;;;;;60.45;29.70;;;-4.20;99.90;;;;;;2083475;28;20024;-74
2024/01/21 01:54:49;;;;;;;54.50;28.45;;;-4.30;99.90;;;;;;2084764;28;20029;-73
2024/01/21 01:55:50;;;;;;;41.58;22.88;;;-4.30;99.90;;;;;;2088767;28;20099;-73
2024/01/21 01:56:52;;;;;;;44.80;22.83;;;-4.30;99.90;;;;;;2097594;28;20036;-74
2024/01/21 01:58:08;;;;;;;42.17;21.40;;;-4.30;99.90;;;;;;2096466;28;20645;-74
2024/01/21 01:59:12;;;;;;;38.45;20.75;;;-4.20;99.90;;;;;;2095522;28;21068;-75
2024/01/21 02:00:14;;;;;;;40.35;21.20;;;-4.20;99.90;;;;;;2087773;28;20032;-75
2024/01/21 02:01:15;;;;;;;39.28;21.05;;;-4.20;99.90;;;;;;2077235;28;20029;-75
2024/01/21 02:02:16;;;;;;;45.53;22.10;;;-4.20;99.90;;;;;;2088482;28;20035;-75
2024/01/21 02:03:17;;;;;;;38.28;21.42;;;-4.30;99.90;;;;;;2084266;28;20036;-75
2024/01/21 02:04:18;;;;;;;39.13;21.55;;;-4.30;99.90;;;;;;2076225;28;20029;-75
2024/01/21 02:05:19;;;;;;;43.05;21.98;;;-4.30;99.90;;;;;;2088495;28;20412;-74
2024/01/21 02:06:19;;;;;;;39.40;20.83;;;-4.30;99.90;;;;;;2084533;28;20032;-74
2024/01/21 02:07:20;;;;;;;40.33;21.55;;;-4.30;99.90;;;;;;2084549;28;20632;-75
2024/01/21 02:08:20;;;;;;;40.08;21.27;;;-4.30;99.90;;;;;;2088597;28;20505;-75
2024/01/21 02:09:21;;;;;;;37.78;20.65;;;-4.30;99.90;;;;;;2084818;28;20040;-75
2024/01/21 02:10:22;;;;;;;38.63;21.52;;;-4.30;99.90;;;;;;2084307;28;20140;-76
2024/01/21 02:11:22;;;;;;;39.08;21.35;;;-4.40;99.90;;;;;;2088073;28;20031;-75
2024/01/21 02:12:23;;;;;;;38.17;20.23;;;-4.40;99.90;;;;;;2086033;28;20056;-75
2024/01/21 02:13:24;;;;;;;41.20;21.42;;;-4.50;99.90;;;;;;2099674;28;20032;-73
2024/01/21 02:14:25;;;;;;;43.47;21.83;;;-4.50;99.90;;;;;;2084305;28;20258;-75
2024/01/21 02:15:25;;;;;;;41.58;21.50;;;-4.50;99.90;;;;;;2084263;28;20089;-75
2024/01/21 02:16:26;;;;;;;40.95;21.23;;;-4.40;99.90;;;;;;2088513;28;20530;-75
2024/01/21 02:17:26;;;;;;;41.03;21.88;;;-4.40;99.90;;;;;;2096709;28;20032;-75
2024/01/21 02:18:27;;;;;;;41.20;21.70;;;-4.40;99.90;;;;;;2084896;28;20511;-74
2024/01/21 02:19:30;;;;;;;41.33;21.48;;;-4.40;99.90;;;;;;2075353;28;20021;-75
2024/01/21 02:20:30;;;;;;;41.22;21.27;;;-4.40;99.90;;;;;;2076466;28;20079;-75
2024/01/21 02:21:36;;;;;;;45.55;22.00;;;-4.40;99.90;;;;;;2068279;28;20025;-75
2024/01/21 02:22:40;;;;;;;41.22;21.08;;;-4.40;99.90;;;;;;2083505;28;20040;-75
2024/01/21 02:23:42;;;;;;;40.88;21.88;;;-4.40;99.90;;;;;;2087044;28;20402;-74
2024/01/21 02:24:43;;;;;;;37.85;20.73;;;-4.40;99.90;;;;;;2092530;28;20047;-74
2024/01/21 02:25:43;;;;;;;41.88;21.63;;;-4.40;99.90;;;;;;2085681;28;20033;-74
2024/01/21 02:26:44;;;;;;;39.80;21.67;;;-4.40;99.90;;;;;;2087179;28;20029;-74
2024/01/21 02:27:45;;;;;;;36.92;20.60;;;-4.50;99.90;;;;;;2092461;28;20025;-75
2024/01/21 02:28:46;;;;;;;39.03;21.25;;;-4.50;99.90;;;;;;2093754;28;20029;-76
2024/01/21 02:29:46;;;;;;;36.28;20.80;;;-4.40;99.90;;;;;;2082141;28;20021;-75
2024/01/21 02:30:47;;;;;;;39.35;21.23;;;-4.40;99.90;;;;;;2079577;28;20103;-76
2024/01/21 02:31:48;;;;;;;40.03;21.10;;;-4.50;99.90;;;;;;2074065;28;20427;-76
2024/01/21 02:32:48;;;;;;;39.30;21.30;;;-4.50;99.90;;;;;;2075238;28;20056;-76
2024/01/21 02:33:49;;;;;;;38.28;21.05;;;-4.50;99.90;;;;;;2084601;28;20098;-74
2024/01/21 02:34:49;;;;;;;36.95;19.58;;;-4.50;99.90;;;;;;2093434;28;20025;-75
2024/01/21 02:35:50;;;;;;;41.58;21.05;;;-4.50;99.90;;;;;;2087008;28;20347;-74
2024/01/21 02:36:50;;;;;;;37.33;19.70;;;-4.50;99.90;;;;;;2079705;28;20057;-74
2024/01/21 02:37:51;;;;;;;39.60;20.42;;;-4.50;99.90;;;;;;2070452;28;20025;-74
2024/01/21 02:38:52;;;;;;;39.20;20.25;;;-4.50;99.90;;;;;;2076002;28;20025;-76
2024/01/21 02:39:52;;;;;;;38.47;21.02;;;-4.50;99.90;;;;;;2093368;28;20112;-74
2024/01/21 02:40:53;;;;;;;36.78;20.33;;;-4.50;99.90;;;;;;2103744;28;20032;-76
2024/01/21 02:41:53;;;;;;;37.40;20.17;;;-4.50;99.90;;;;;;2091820;28;20052;-76
2024/01/21 02:42:54;;;;;;;37.47;20.60;;;-4.50;99.90;;;;;;2080726;28;20056;-75
2024/01/21 02:43:55;;;;;;;39.85;21.40;;;-4.50;99.90;;;;;;2080195;28;20025;-76
2024/01/21 02:44:56;;;;;;;41.30;20.83;;;-4.50;99.90;;;;;;2077285;28;20032;-76
2024/01/21 02:45:56;;;;;;;40.20;21.25;;;-4.50;99.90;;;;;;2088256;28;20488;-73
2024/01/21 02:46:57;;;;;;;39.67;21.55;;;-4.60;99.90;;;;;;2096862;28;20039;-75
2024/01/21 02:48:02;;;;;;;37.78;20.42;;;-4.60;99.90;;;;;;2084646;28;20033;-76
2024/01/21 02:49:03;;;;;;;38.63;20.52;;;-4.60;99.90;;;;;;2083370;28;20082;-75
2024/01/21 02:50:05;;;;;;;37.22;20.58;;;-4.60;99.90;;;;;;2096295;28;20511;-76
2024/01/21 02:51:12;;;;;;;38.42;21.13;;;-4.60;99.90;;;;;;2096399;28;20540;-74
2024/01/21 02:52:13;;;;;;;37.13;20.83;;;-4.60;99.90;;;;;;2079097;28;20033;-76
2024/01/21 02:53:13;;;;;;;40.35;20.50;;;-4.60;99.90;;;;;;2087191;28;20391;-76
2024/01/21 02:54:14;;;;;;;39.78;21.15;;;-4.70;99.90;;;;;;2088152;28;20028;-76
2024/01/21 02:55:14;;;;;;;40.00;20.58;;;-4.70;99.90;;;;;;2080188;28;20120;-76
2024/01/21 02:56:22;;;;;;;38.85;20.75;;;-4.60;99.90;;;;;;2069561;28;20029;-75
2024/01/21 02:57:23;;;;;;;38.42;20.17;;;-4.70;99.90;;;;;;2077674;28;21043;-75
2024/01/21 02:58:24;;;;;;;38.53;20.15;;;-4.70;99.90;;;;;;2078307;28;20053;-76
2024/01/21 02:59:24;;;;;;;38.47;21.00;;;-4.70;99.90;;;;;;2085347;28;20033;-76
2024/01/21 03:00:25;;;;;;;40.50;20.88;;;-4.70;99.90;;;;;;2083240;28;20025;-75
2024/01/21 03:01:25;;;;;;;39.53;20.10;;;-4.60;99.90;;;;;;2088519;28;20029;-74
2024/01/21 03:02:26;;;;;;;39.25;20.13;;;-4.70;99.90;;;;;;2084343;28;20067;-76
2024/01/21 03:03:26;;;;;;;40.97;21.00;;;-4.60;99.90;;;;;;2096251;28;20111;-75
2024/01/21 03:04:27;;;;;;;42.40;22.08;;;-4.60;99.90;;;;;;2089986;28;20032;-75
2024/01/21 03:05:33;;;;;;;40.92;21.95;;;-4.60;99.90;;;;;;2075948;28;20021;-75
2024/01/21 03:06:34;;;;;;;38.53;21.27;;;-4.60;99.90;;;;;;2081545;28;20068;-75
2024/01/21 03:07:34;;;;;;;42.53;21.55;;;-4.60;99.90;;;;;;2081587;28;20388;-75
2024/01/21 03:08:35;;;;;;;39.30;21.27;;;-4.60;99.90;;;;;;2078478;28;20028;-76
2024/01/21 03:09:35;;;;;;;38.08;20.67;;;-4.60;99.90;;;;;;2087332;28;20074;-76
2024/01/21 03:10:36;;;;;;;37.50;20.80;;;-4.60;99.90;;;;;;2080436;28;20033;-75
2024/01/21 03:11:38;;;;;;;37.80;21.20;;;-4.70;99.90;;;;;;2087553;28;20033;-74
2024/01/21 03:12:39;;;;;;;40.80;21.27;;;-4.60;99.90;;;;;;2096026;28;20104;-75
2024/01/21 03:13:39;;;;;;;42.47;21.33;;;-4.60;99.90;;;;;;2088230;28;20060;-73
2024/01/21 03:14:40;;;;;;;41.10;21.77;;;-4.60;99.90;;;;;;2076124;28;20025;-76
2024/01/21 03:15:40;;;;;;;39.72;20.90;;;-4.60;99.90;;;;;;2087971;28;20024;-73
2024/01/21 03:16:41;;;;;;;40.60;21.40;;;-4.60;99.90;;;;;;2084005;28;20032;-75
2024/01/21 03:17:41;;;;;;;40.70;21.52;;;-4.60;99.90;;;;;;2091362;28;20579;-76
2024/01/21 03:18:42;;;;;;;39.17;20.60;;;-4.70;99.90;;;;;;2092200;28;20383;-74
2024/01/21 03:19:43;;;;;;;37.50;20.48;;;-4.60;99.90;;;;;;2093327;28;20029;-76
2024/01/21 03:20:43;;;;;;;40.58;21.48;;;-4.70;99.90;;;;;;2083868;28;20033;-76
2024/01/21 03:21:44;;;;;;;39.22;21.20;;;-4.60;99.90;;;;;;2087136;28;20042;-76
2024/01/21 03:22:44;;;;;;;40.03;21.52;;;-4.70;99.90;;;;;;2084531;28;20041;-73
2024/01/21 03:23:45;;;;;;;39.78;21.15;;;-4.70;99.90;;;;;;2090486;28;20033;-74
2024/01/21 03:24:45;;;;;;;39.92;21.48;;;-4.70;99.90;;;;;;2096090;28;20489;-76
2024/01/21 03:25:46;;;;;;;41.65;21.88;;;-4.70;99.90;;;;;;2093753;28;20062;-73
2024/01/21 03:26:47;;;;;;;39.90;21.23;;;-4.70;99.90;;;;;;2092149;28;20028;-75
2024/01/21 03:27:47;;;;;;;40.65;21.70;;;-4.70;99.90;;;;;;2092156;28;20107;-75
2024/01/21 03:29:06;;;;;;;39.83;20.77;;;-4.70;99.90;;;;;;2099609;28;20511;-77
2024/01/21 03:30:07;;;;;;;40.38;20.60;;;-4.80;99.90;;;;;;2093652;28;20032;-75
2024/01/21 03:31:08;;;;;;;39.38;20.67;;;-4.70;99.90;;;;;;2075959;28;20557;-75
2024/01/21 03:32:08;;;;;;;37.83;21.45;;;-4.80;99.90;;;;;;2071863;28;20028;-74
2024/01/21 03:33:09;;;;;;;39.85;20.90;;;-4.80;99.90;;;;;;2088055;28;20571;-75
2024/01/21 03:34:09;;;;;;;40.88;21.05;;;-4.80;99.90;;;;;;2076545;28;20048;-74
2024/01/21 03:35:10;;;;;;;38.03;21.27;;;-4.80;99.90;;;;;;2083512;28;20088;-74
2024/01/21 03:36:11;;;;;;;39.63;20.90;;;-4.80;99.90;;;;;;2074673;28;20029;-75
2024/01/21 03:37:12;;;;;;;38.17;20.67;;;-4.80;99.90;;;;;;2083964;28;20056;-74
2024/01/21 03:38:13;;;;;;;41.05;20.95;;;-4.80;99.90;;;;;;2075525;28;20037;-74
2024/01/21 03:39:13;;;;;;;38.53;20.50;;;-4.80;99.90;;;;;;2083918;28;20533;-71
2024/01/21 03:40:14;;;;;;;38.83;21.15;;;-4.80;99.90;;;;;;2083699;28;20051;-75
2024/01/21 03:41:15;;;;;;;37.95;21.20;;;-4.80;99.90;;;;;;2079417;28;20064;-74
2024/01/21 03:42:15;;;;;;;38.35;20.25;;;-4.80;99.90;;;;;;2083086;28;20548;-75
2024/01/21 03:43:17;;;;;;;41.33;20.80;;;-4.80;99.90;;;;;;2079385;28;20029;-75
2024/01/21 03:44:18;;;;;;;39.20;20.75;;;-4.80;99.90;;;;;;2089285;28;20391;-74
2024/01/21 03:45:19;;;;;;;39.47;21.00;;;-4.80;99.90;;;;;;2083613;28;20025;-74
2024/01/21 03:46:19;;;;;;;40.35;20.90;;;-4.80;99.90;;;;;;2083870;28;20111;-74
2024/01/21 03:47:20;;;;;;;40.20;20.67;;;-4.80;99.90;;;;;;2083589;28;20021;-74
2024/01/21 03:48:21;;;;;;;37.78;20.23;;;-4.80;99.90;;;;;;2079459;28;20480;-74
2024/01/21 03:49:22;;;;;;;39.63;21.80;;;-4.80;99.90;;;;;;2084023;28;20016;-74
2024/01/21 03:50:22;;;;;;;52.63;23.45;;;-4.80;99.90;;;;;;2088525;28;20027;-74
2024/01/21 03:51:23;;;;;;;40.40;21.08;;;-4.80;99.90;;;;;;2091387;28;20017;-74
2024/01/21 03:52:24;;;;;;;40.15;21.13;;;-4.80;99.90;;;;;;2097761;28;20016;-74
2024/01/21 03:53:24;;;;;;;44.20;21.80;;;-4.80;99.90;;;;;;2093210;28;20442;-75
2024/01/21 03:54:25;;;;;;;41.13;20.40;;;-4.80;99.90;;;;;;2083228;28;20032;-74
2024/01/21 03:55:25;;;;;;;43.35;22.08;;;-4.80;99.90;;;;;;2092829;28;20051;-74
2024/01/21 03:56:26;;;;;;;40.83;21.05;;;-4.80;99.90;;;;;;2097282;28;20028;-75
2024/01/21 03:57:33;;;;;;;38.65;20.52;;;-4.70;99.90;;;;;;2106480;28;20336;-74
2024/01/21 03:58:34;;;;;;;39.03;20.55;;;-4.80;99.90;;;;;;2093012;28;20519;-74
2024/01/21 03:59:35;;;;;;;41.47;21.20;;;-4.70;99.90;;;;;;2079762;28;20036;-75
2024/01/21 04:00:35;;;;;;;40.75;20.42;;;-4.80;99.90;;;;;;2074094;28;20111;-74
2024/01/21 04:01:43;;;;;;;40.25;20.45;;;-4.80;99.90;;;;;;2070695;28;20030;-74
2024/01/21 04:02:44;;;;;;;40.75;20.90;;;-4.80;99.90;;;;;;2085099;28;20049;-74
2024/01/21 04:03:44;;;;;;;41.33;21.77;;;-4.80;99.90;;;;;;2083895;28;20037;-74
2024/01/21 04:04:45;;;;;;;40.30;20.42;;;-4.80;99.90;;;;;;2084368;28;20052;-74
2024/01/21 04:05:46;;;;;;;38.58;20.48;;;-4.80;99.90;;;;;;2076193;28;20121;-74
2024/01/21 04:06:46;;;;;;;38.50;20.23;;;-4.80;99.90;;;;;;2083744;28;20039;-73
2024/01/21 04:07:47;;;;;;;38.28;20.10;;;-4.80;99.90;;;;;;2087231;28;20071;-75
2024/01/21 04:08:49;;;;;;;41.35;19.98;;;-4.80;99.90;;;;;;2080266;28;20399;-76
2024/01/21 04:09:49;;;;;;;39.35;20.63;;;-4.80;99.90;;;;;;2088019;28;20036;-73
2024/01/21 04:10:50;;;;;;;37.20;20.48;;;-4.80;99.90;;;;;;2088024;28;20032;-74
2024/01/21 04:11:51;;;;;;;39.40;20.95;;;-4.80;99.90;;;;;;2083728;28;20107;-73
2024/01/21 04:12:51;;;;;;;37.65;20.33;;;-4.80;99.90;;;;;;2084221;28;20037;-73
2024/01/21 04:13:52;;;;;;;38.80;20.02;;;-4.80;99.90;;;;;;2076003;28;20033;-76
2024/01/21 04:14:52;;;;;;;43.50;20.83;;;-4.80;99.90;;;;;;2091245;28;20368;-77
2024/01/21 04:15:53;;;;;;;41.95;20.52;;;-4.70;99.90;;;;;;2090885;28;20032;-83
2024/01/21 04:16:54;;;;;;;37.63;19.73;;;-4.50;99.90;;;;;;2091836;28;20061;-76
2024/01/21 04:17:54;;;;;;;43.40;20.48;;;-4.20;99.90;;;;;;2077120;28;20033;-75
2024/01/21 04:18:55;;;;;;;37.33;19.38;;;-3.80;99.90;;;;;;2086784;28;20113;-76
2024/01/21 04:19:55;;;;;;;40.03;19.88;;;-3.50;99.90;;;;;;2092753;28;20080;-76
2024/01/21 04:21:00;;;;;;;35.53;19.67;;;-3.60;99.90;;;;;;2096613;28;20619;-74
2024/01/21 04:22:01;;;;;;;37.08;19.67;;;-3.70;99.90;;;;;;2076425;28;20036;-75
2024/01/21 04:23:01;;;;;;;36.28;18.90;;;-3.90;99.90;;;;;;2084599;28;20143;-75
2024/01/21 04:24:03;;;;;;;37.35;19.42;;;-4.00;99.90;;;;;;2082629;28;20629;-76
2024/01/21 04:25:04;;;;;;;38.67;18.83;;;-4.10;99.90;;;;;;2083626;28;20040;-76
2024/01/21 04:26:04;;;;;;;36.50;19.42;;;-4.20;99.90;;;;;;2087612;28;20597;-74
2024/01/21 04:27:05;;;;;;;38.08;19.98;;;-4.30;99.90;;;;;;2098645;28;20035;-74
2024/01/21 04:28:06;;;;;;;39.30;19.55;;;-4.40;99.90;;;;;;2087511;28;20037;-76
2024/01/21 04:29:09;;;;;;;35.90;19.08;;;-4.40;99.90;;;;;;2083851;28;20033;-76
2024/01/21 04:30:10;;;;;;;38.40;19.85;;;-4.50;99.90;;;;;;2086185;28;20021;-76
2024/01/21 04:31:11;;;;;;;38.80;19.30;;;-4.50;99.90;;;;;;2083131;28;20036;-76
2024/01/21 04:32:11;;;;;;;34.83;19.05;;;-4.50;99.90;;;;;;2080426;28;20095;-75
2024/01/21 04:33:12;;;;;;;36.88;20.20;;;-4.50;99.90;;;;;;2093566;28;20048;-75
2024/01/21 04:34:13;;;;;;;42.00;19.63;;;-4.50;99.90;;;;;;2087204;28;20873;-75
2024/01/21 04:35:13;;;;;;;37.55;19.02;;;-4.50;99.90;;;;;;2082303;28;20067;-75
2024/01/21 04:36:18;;;;;;;37.05;19.70;;;-4.50;99.90;;;;;;2083677;28;20546;-75
2024/01/21 04:37:19;;;;;;;39.35;19.70;;;-4.50;99.90;;;;;;2084038;28;20051;-76
2024/01/21 04:38:23;;;;;;;37.72;19.38;;;-4.60;99.90;;;;;;2074950;28;20511;-76
2024/01/21 04:39:24;;;;;;;39.70;19.73;;;-4.60;99.90;;;;;;2085556;28;20036;-75
2024/01/21 04:40:24;;;;;;;40.83;19.92;;;-4.60;99.90;;;;;;2094723;28;20843;-76
2024/01/21 04:41:25;;;;;;;36.83;19.58;;;-4.70;99.90;;;;;;2086942;28;20873;-76
2024/01/21 04:42:26;;;;;;;41.88;20.67;;;-4.70;99.90;;;;;;2083882;28;20036;-76
2024/01/21 04:43:26;;;;;;;37.63;20.60;;;-4.70;99.90;;;;;;2083999;28;20550;-76
2024/01/21 04:44:27;;;;;;;38.38;19.98;;;-4.70;99.90;;;;;;2075203;28;20023;-75
2024/01/21 04:45:28;;;;;;;35.45;19.38;;;-4.70;99.90;;;;;;2083487;28;20733;-76
2024/01/21 04:46:29;;;;;;;37.17;20.02;;;-4.70;99.90;;;;;;2083515;28;20029;-75
2024/01/21 04:47:29;;;;;;;38.13;20.30;;;-4.70;99.90;;;;;;2075476;28;20021;-76
2024/01/21 04:48:30;;;;;;;39.70;20.10;;;-4.80;99.90;;;;;;2087482;28;20033;-76
2024/01/21 04:49:30;;;;;;;35.75;19.85;;;-4.70;99.90;;;;;;2075725;28;20025;-75
2024/01/21 04:50:31;;;;;;;37.10;19.63;;;-4.70;99.90;;;;;;2074639;28;20030;-75
2024/01/21 04:51:31;;;;;;;37.08;19.92;;;-4.80;99.90;;;;;;2084020;28;20051;-76
2024/01/21 04:52:32;;;;;;;38.58;20.98;;;-4.70;99.90;;;;;;2075351;28;20132;-75
2024/01/21 04:53:33;;;;;;;37.40;20.60;;;-4.80;99.90;;;;;;2095615;28;20021;-75
2024/01/21 04:54:34;;;;;;;35.58;20.23;;;-4.80;99.90;;;;;;2092014;28;20036;-75
2024/01/21 04:55:34;;;;;;;39.58;20.70;;;-4.70;99.90;;;;;;2078780;28;20036;-76
2024/01/21 04:56:36;;;;;;;39.70;20.38;;;-4.70;99.90;;;;;;2089158;28;20413;-76
2024/01/21 04:57:36;;;;;;;36.05;19.73;;;-4.80;99.90;;;;;;2087228;28;20079;-76
2024/01/21 04:58:37;;;;;;;37.30;20.20;;;-4.80;99.90;;;;;;2083198;28;20065;-75
2024/01/21 04:59:38;;;;;;;36.80;19.63;;;-4.80;99.90;;;;;;2087585;28;20040;-74
2024/01/21 05:00:38;;;;;;;36.45;19.40;;;-4.80;99.90;;;;;;2086990;28;20057;-76
2024/01/21 05:01:40;;;;;;;38.38;20.52;;;-4.80;99.90;;;;;;2083483;28;20020;-76
2024/01/21 05:02:40;;;;;;;39.55;19.90;;;-4.80;99.90;;;;;;2090158;28;20042;-76
2024/01/21 05:03:41;;;;;;;38.53;20.48;;;-4.80;99.90;;;;;;2088748;28;20486;-76
2024/01/21 05:04:42;;;;;;;38.80;19.77;;;-4.80;99.90;;;;;;2092199;28;20210;-76
2024/01/21 05:05:42;;;;;;;40.50;20.35;;;-4.80;99.90;;;;;;2086494;28;20391;-74
2024/01/21 05:06:43;;;;;;;36.85;20.20;;;-4.80;99.90;;;;;;2087294;28;20097;-74
2024/01/21 05:07:44;;;;;;;35.67;19.63;;;-4.80;99.90;;;;;;2084611;28;20025;-75
2024/01/21 05:08:44;;;;;;;36.65;19.52;;;-4.80;99.90;;;;;;2080524;28;20041;-75
2024/01/21 05:09:45;;;;;;;36.17;20.20;;;-4.80;99.90;;;;;;2083397;28;20060;-75
2024/01/21 05:10:45;;;;;;;34.50;19.73;;;-4.80;99.90;;;;;;2076887;28;20080;-74
2024/01/21 05:11:46;;;;;;;46.58;24.13;;;-4.80;99.90;;;;;;2083568;28;20052;-75